Time;durP1;ratioP1;P1;durP2;ratioP2;P2;SDS_P1;SDS_P2;PMS_P1;PMS_P2;Temp;Humidity;BMP_temperature;BMP_pressure;BME280_temperature;BME280_humidity;BME280_pressure;Samples;Min_cycle;Max_cycle;Signal;HPM_P1;HPM_P2
2023/07/03 00:01:42;;;;;;;9.10;6.90;;;;;;;15.40;60.33;99534.25;129637;1270;107587;-82
2023/07/03 00:04:47;;;;;;;10.70;9.00;;;;;;;15.37;60.58;99532.75;129819;1270;107459;-82
2023/07/03 00:07:53;;;;;;;12.80;10.90;;;;;;;15.38;60.69;99538.14;129632;1270;107640;-82
2023/07/03 00:11:02;;;;;;;10.50;8.50;;;;;;;15.35;60.94;99536.47;129674;1280;107777;-83
2023/07/03 00:14:08;;;;;;;8.20;6.50;;;;;;;15.32;60.94;99539.92;129674;1279;107590;-83
2023/07/03 00:17:13;;;;;;;8.60;6.60;;;;;;;15.27;61.04;99541.39;129677;1282;107575;-83
2023/07/03 00:20:19;;;;;;;7.60;6.30;;;;;;;15.22;61.28;99541.88;129487;1271;107355;-82
2023/07/03 00:23:26;;;;;;;8.00;5.90;;;;;;;15.20;61.44;99542.08;129575;1271;107316;-82
2023/07/03 00:26:31;;;;;;;9.40;5.80;;;;;;;15.17;61.43;99540.73;129684;1273;107702;-83
2023/07/03 00:29:37;;;;;;;8.20;5.40;;;;;;;15.13;61.49;99539.85;129625;1273;107600;-83
2023/07/03 00:32:43;;;;;;;7.30;5.80;;;;;;;15.09;61.63;99541.13;129466;1272;107568;-83
2023/07/03 00:35:48;;;;;;;8.60;5.80;;;;;;;15.07;61.77;99548.06;129764;1267;107656;-83
2023/07/03 00:38:57;;;;;;;7.00;5.20;;;;;;;15.02;61.73;99551.92;129379;1279;253090;-82
2023/07/03 00:42:03;;;;;;;7.00;5.10;;;;;;;14.96;62.06;99553.63;129750;1272;107551;-82
2023/07/03 00:45:11;;;;;;;7.20;5.00;;;;;;;14.91;61.85;99552.23;129826;1282;107393;-83
2023/07/03 00:48:17;;;;;;;8.10;4.90;;;;;;;14.88;62.20;99554.48;129792;1273;107274;-82
2023/07/03 00:51:23;;;;;;;8.60;4.80;;;;;;;14.90;62.39;99557.15;129821;1277;107297;-84
2023/07/03 00:54:30;;;;;;;6.50;4.90;;;;;;;14.92;62.38;99557.98;130006;1273;107473;-83
2023/07/03 00:57:36;;;;;;;8.80;5.40;;;;;;;14.93;62.43;99556.99;130080;1272;107571;-83
2023/07/03 01:00:49;;;;;;;6.10;4.90;;;;;;;14.96;62.51;99566.47;129769;1267;107589;-83
2023/07/03 01:04:00;;;;;;;6.30;5.30;;;;;;;14.97;62.45;99570.44;129631;1274;108773;-82
2023/07/03 01:07:10;;;;;;;7.60;5.00;;;;;;;14.93;62.47;99569.27;129553;1273;107542;-83
2023/07/03 01:10:20;;;;;;;7.30;5.20;;;;;;;14.88;62.71;99569.16;129681;1281;107401;-82
2023/07/03 01:13:29;;;;;;;7.40;5.50;;;;;;;14.84;62.59;99568.02;129882;1273;107527;-82
2023/07/03 01:16:36;;;;;;;6.80;5.10;;;;;;;14.79;62.71;99567.74;129608;1271;107282;-82
2023/07/03 01:19:46;;;;;;;9.30;5.40;;;;;;;14.74;62.85;99571.23;129953;1272;107459;-83
2023/07/03 01:22:59;;;;;;;8.10;5.30;;;;;;;14.65;62.92;99568.56;129629;1274;107537;-83
2023/07/03 01:26:07;;;;;;;7.30;5.40;;;;;;;14.55;63.19;99570.71;129391;1273;108685;-82
2023/07/03 01:29:14;;;;;;;8.50;5.50;;;;;;;14.48;63.43;99571.67;129537;1273;107549;-83
2023/07/03 01:32:21;;;;;;;8.90;5.90;;;;;;;14.43;63.35;99573.09;129496;1281;106536;-82
2023/07/03 01:35:28;;;;;;;7.60;5.70;;;;;;;14.40;63.56;99576.98;129388;1281;107499;-82
2023/07/03 01:38:36;;;;;;;8.20;6.30;;;;;;;14.30;63.38;99574.63;129255;1284;107571;-82
2023/07/03 01:41:41;;;;;;;7.20;5.20;;;;;;;14.23;63.51;99578.91;129546;1273;107603;-82
2023/07/03 01:44:47;;;;;;;8.60;5.00;;;;;;;14.16;63.61;99578.57;129555;1270;107631;-82
2023/07/03 01:47:53;;;;;;;7.50;5.20;;;;;;;14.14;63.78;99575.95;129449;1279;107615;-83
2023/07/03 01:50:59;;;;;;;9.60;5.50;;;;;;;14.13;64.02;99574.91;129543;1281;107554;-83
2023/07/03 01:54:12;;;;;;;9.50;5.40;;;;;;;14.12;63.91;99578.27;129395;1273;107628;-82
2023/07/03 01:57:26;;;;;;;8.70;5.70;;;;;;;14.12;64.39;99575.27;129357;1273;107558;-82
2023/07/03 02:00:43;;;;;;;9.20;5.70;;;;;;;14.10;64.23;99577.77;129469;1267;105898;-83
2023/07/03 02:03:53;;;;;;;9.10;5.90;;;;;;;14.07;64.24;99577.66;129386;1280;107394;-82
2023/07/03 02:07:00;;;;;;;8.70;5.90;;;;;;;14.02;64.27;99583.47;129579;1274;107263;-83
2023/07/03 02:10:07;;;;;;;12.10;6.50;;;;;;;13.97;64.24;99582.67;129665;1282;107277;-83
2023/07/03 02:13:12;;;;;;;9.40;6.10;;;;;;;13.93;64.54;99586.73;129938;1270;107578;-83
2023/07/03 02:16:19;;;;;;;9.80;6.60;;;;;;;13.90;64.54;99587.36;129894;1267;106336;-83
2023/07/03 02:19:28;;;;;;;8.00;5.90;;;;;;;13.87;64.61;99591.95;129838;1270;107073;-83
2023/07/03 02:22:34;;;;;;;7.90;6.00;;;;;;;13.84;64.81;99591.68;129392;1274;107522;-84
2023/07/03 02:25:40;;;;;;;9.10;6.30;;;;;;;13.82;64.85;99590.98;129803;1270;107617;-84
2023/07/03 02:28:45;;;;;;;9.60;5.70;;;;;;;13.78;64.93;99592.35;129679;1273;107588;-84
2023/07/03 02:31:51;;;;;;;7.60;5.20;;;;;;;13.76;65.06;99592.09;130500;1271;106673;-83
2023/07/03 02:34:56;;;;;;;9.00;5.40;;;;;;;13.80;65.23;99586.84;130541;1269;107413;-84
2023/07/03 02:38:02;;;;;;;8.60;5.50;;;;;;;13.83;64.99;99588.86;130630;1270;107459;-83
2023/07/03 02:41:07;;;;;;;9.50;5.70;;;;;;;13.91;65.05;99581.67;130474;1267;107546;-83
2023/07/03 02:44:13;;;;;;;9.00;6.10;;;;;;;14.00;65.11;99582.05;130528;1270;106863;-82
2023/07/03 02:47:18;;;;;;;7.70;5.60;;;;;;;14.04;65.17;99575.90;129756;1273;107598;-82
2023/07/03 02:50:24;;;;;;;7.60;5.70;;;;;;;14.08;65.20;99575.94;129418;1272;107546;-82
2023/07/03 02:53:30;;;;;;;8.50;5.70;;;;;;;14.08;65.17;99575.81;129610;1273;107561;-82
2023/07/03 02:56:41;;;;;;;7.10;5.20;;;;;;;14.06;65.13;99580.09;129866;1273;107500;-82
2023/07/03 02:59:47;;;;;;;7.00;5.50;;;;;;;14.03;65.33;99589.05;129898;1272;107569;-82
2023/07/03 03:02:53;;;;;;;8.40;5.60;;;;;;;13.97;65.20;99590.39;130122;1274;107559;-82
2023/07/03 03:05:59;;;;;;;9.20;5.60;;;;;;;13.93;65.24;99593.73;129915;1272;108665;-82
2023/07/03 03:09:06;;;;;;;10.20;5.80;;;;;;;13.91;65.39;99594.02;130535;1270;107503;-82
2023/07/03 03:12:12;;;;;;;10.40;6.20;;;;;;;13.89;65.30;99594.77;130215;1271;107568;-83
2023/07/03 03:15:19;;;;;;;9.60;5.90;;;;;;;13.91;65.47;99597.98;130391;1267;107083;-82
2023/07/03 03:18:25;;;;;;;10.20;5.70;;;;;;;13.96;65.71;99603.83;130018;1287;107568;-83
2023/07/03 03:21:31;;;;;;;7.20;5.20;;;;;;;14.06;65.58;99602.30;129560;1274;107536;-83
2023/07/03 03:24:37;;;;;;;5.40;4.40;;;;;;;14.15;65.84;99600.31;129652;1270;106507;-82
2023/07/03 03:27:42;;;;;;;6.80;4.80;;;;;;;14.29;66.04;99591.80;129911;1267;107574;-82
2023/07/03 03:30:48;;;;;;;6.50;5.20;;;;;;;14.49;66.04;99598.73;129827;1271;107696;-83
2023/07/03 03:33:53;;;;;;;8.30;5.40;;;;;;;14.64;66.00;99595.29;129889;1273;107602;-83
2023/07/03 03:36:59;;;;;;;7.10;5.40;;;;;;;14.86;65.92;99591.21;129870;1267;107652;-83
2023/07/03 03:40:08;;;;;;;9.10;5.90;;;;;;;15.11;65.82;99591.73;129910;1267;107640;-83
2023/07/03 03:43:13;;;;;;;7.50;5.10;;;;;;;15.35;65.75;99587.20;130068;1267;107738;-82
2023/07/03 03:46:19;;;;;;;6.50;5.10;;;;;;;15.59;65.95;99595.19;130361;1266;107661;-83
2023/07/03 03:49:25;;;;;;;6.30;5.20;;;;;;;15.87;65.68;99593.52;130017;1267;107279;-83
2023/07/03 03:52:33;;;;;;;5.90;4.50;;;;;;;16.17;65.80;99584.66;130076;1281;107594;-83
2023/07/03 03:55:39;;;;;;;9.50;7.20;;;;;;;16.47;65.69;99579.69;130091;1267;106428;-83
2023/07/03 03:58:45;;;;;;;9.60;5.50;;;;;;;16.72;65.61;99578.09;129995;1270;107478;-82
2023/07/03 04:01:50;;;;;;;7.70;5.60;;;;;;;16.95;65.49;99568.58;129890;1270;107478;-82
2023/07/03 04:04:56;;;;;;;5.90;4.80;;;;;;;17.12;65.34;99575.70;129603;1270;107561;-83
2023/07/03 04:08:01;;;;;;;7.10;5.40;;;;;;;17.39;65.42;99580.08;129668;1267;107605;-83
2023/07/03 04:11:07;;;;;;;7.90;5.40;;;;;;;17.74;65.34;99583.85;130081;1267;107543;-83
2023/07/03 04:14:15;;;;;;;7.50;5.30;;;;;;;18.03;65.06;99582.52;130050;1267;107564;-83
2023/07/03 04:17:20;;;;;;;6.60;5.00;;;;;;;18.18;64.74;99586.63;129702;1267;107268;-83
2023/07/03 04:20:27;;;;;;;11.20;7.20;;;;;;;18.30;64.74;99592.42;129636;1267;107642;-83
2023/07/03 04:23:33;;;;;;;6.50;5.80;;;;;;;18.37;64.72;99592.11;129905;1266;107610;-84
2023/07/03 04:26:40;;;;;;;6.70;5.30;;;;;;;18.39;64.54;99591.82;130189;1270;107575;-84
2023/07/03 04:29:45;;;;;;;8.40;5.40;;;;;;;18.39;64.81;99596.34;129885;1267;107249;-84
2023/07/03 04:32:53;;;;;;;11.50;5.50;;;;;;;18.40;64.72;99593.46;129759;1271;107514;-83
2023/07/03 04:35:59;;;;;;;8.50;5.40;;;;;;;18.48;64.80;99588.79;129743;1270;107697;-83
2023/07/03 04:39:07;;;;;;;7.80;5.60;;;;;;;18.60;64.30;99574.30;129807;1270;107548;-84
2023/07/03 04:42:14;;;;;;;7.50;5.30;;;;;;;18.59;63.94;99570.39;129926;1270;107576;-84
2023/07/03 04:45:21;;;;;;;6.90;5.40;;;;;;;18.65;64.04;99575.95;129655;1270;107694;-83
2023/07/03 04:48:27;;;;;;;6.80;5.20;;;;;;;18.76;64.06;99584.21;130063;1270;107594;-84
2023/07/03 04:51:32;;;;;;;9.70;5.20;;;;;;;18.91;64.00;99599.27;129627;1270;106668;-85
2023/07/03 04:54:39;;;;;;;9.20;5.70;;;;;;;19.08;63.74;99599.41;129640;1270;107400;-84
2023/07/03 04:57:44;;;;;;;7.80;5.10;;;;;;;19.21;63.54;99608.51;129703;1267;107435;-84
2023/07/03 05:00:50;;;;;;;12.70;9.20;;;;;;;19.39;63.37;99612.29;129666;1270;106785;-84
2023/07/03 05:03:55;;;;;;;7.70;5.40;;;;;;;19.57;63.26;99609.95;129648;1270;106552;-84
2023/07/03 05:07:01;;;;;;;10.80;5.80;;;;;;;19.74;62.93;99606.84;129687;1267;107600;-84
2023/07/03 05:10:08;;;;;;;10.70;5.80;;;;;;;19.87;62.68;99607.13;129594;1271;107568;-84
2023/07/03 05:13:15;;;;;;;7.80;5.30;;;;;;;20.04;62.41;99616.96;129805;1269;107618;-85
2023/07/03 05:16:20;;;;;;;8.50;5.30;;;;;;;20.17;62.18;99620.00;129691;1270;107654;-83
2023/07/03 05:19:26;;;;;;;9.40;5.80;;;;;;;20.29;62.04;99627.45;129599;1269;106604;-83
2023/07/03 05:22:31;;;;;;;7.50;5.00;;;;;;;20.38;61.73;99626.86;129675;1267;107637;-83
2023/07/03 05:25:37;;;;;;;9.60;5.30;;;;;;;20.46;61.72;99623.30;129622;1280;107608;-83
2023/07/03 05:28:45;;;;;;;10.80;5.90;;;;;;;20.58;61.33;99626.82;129710;1267;107281;-84
2023/07/03 05:31:50;;;;;;;8.20;5.70;;;;;;;20.68;60.65;99628.69;129636;1270;106737;-83
2023/07/03 05:34:56;;;;;;;8.30;5.80;;;;;;;20.73;60.33;99631.42;129633;1267;107582;-84
2023/07/03 05:38:02;;;;;;;7.90;5.60;;;;;;;20.79;60.02;99631.08;129614;1271;107536;-81
2023/07/03 05:41:08;;;;;;;7.20;5.30;;;;;;;20.88;59.85;99637.52;129619;1270;107531;-82
2023/07/03 05:44:14;;;;;;;9.80;5.60;;;;;;;20.98;59.30;99634.77;129671;1271;108276;-83
2023/07/03 05:47:20;;;;;;;7.40;5.00;;;;;;;21.05;59.09;99633.13;129570;1270;107257;-83
2023/07/03 05:50:25;;;;;;;9.90;5.40;;;;;;;21.15;58.74;99633.19;129553;1267;107236;-78
2023/07/03 05:53:31;;;;;;;10.80;5.40;;;;;;;21.22;58.41;99635.67;129624;1271;107534;-79
2023/07/03 05:56:37;;;;;;;8.00;5.10;;;;;;;21.26;56.83;99644.75;129666;1268;107593;-80
2023/07/03 05:59:42;;;;;;;8.00;5.10;;;;;;;21.25;57.17;99645.81;129839;1268;107567;-80
2023/07/03 06:02:51;;;;;;;6.10;4.70;;;;;;;21.29;56.11;99650.63;129442;1271;107620;-81
2023/07/03 06:05:57;;;;;;;8.30;4.80;;;;;;;21.22;54.80;99654.21;129569;1267;106366;-82
2023/07/03 06:09:03;;;;;;;7.90;5.20;;;;;;;21.21;55.43;99660.20;129657;1270;107373;-82
2023/07/03 06:12:10;;;;;;;9.70;5.30;;;;;;;21.24;55.37;99662.73;129618;1271;107194;-82
2023/07/03 06:15:16;;;;;;;7.40;5.20;;;;;;;21.26;53.52;99663.15;129689;1282;107482;-82
2023/07/03 06:18:21;;;;;;;9.80;5.10;;;;;;;21.30;52.42;99659.94;129578;1269;107665;-82
2023/07/03 06:21:27;;;;;;;6.20;4.60;;;;;;;21.31;53.94;99658.05;129625;1270;107457;-82
2023/07/03 06:24:32;;;;;;;7.00;4.70;;;;;;;21.36;53.91;99661.63;129587;1271;107567;-82
2023/07/03 06:27:38;;;;;;;6.90;4.80;;;;;;;21.45;54.20;99662.23;129643;1267;107277;-82
2023/07/03 06:30:50;;;;;;;8.60;4.90;;;;;;;21.60;53.03;99657.55;129667;1270;106544;-82
2023/07/03 06:33:56;;;;;;;6.30;4.30;;;;;;;21.65;52.92;99653.98;129679;1266;107551;-82
2023/07/03 06:37:05;;;;;;;8.60;4.50;;;;;;;21.65;51.56;99658.52;129608;1270;107584;-82
2023/07/03 06:40:12;;;;;;;7.70;4.70;;;;;;;21.53;49.13;99667.34;129628;1270;106435;-83
2023/07/03 06:43:18;;;;;;;5.90;4.40;;;;;;;21.60;49.69;99666.36;129604;1269;107619;-82
2023/07/03 06:46:24;;;;;;;9.20;4.30;;;;;;;21.68;49.21;99662.02;129625;1270;107398;-81
2023/07/03 06:49:30;;;;;;;7.20;4.20;;;;;;;21.69;49.31;99663.34;129578;1270;107603;-84
2023/07/03 06:52:37;;;;;;;7.80;4.30;;;;;;;21.77;46.26;99667.61;129580;1267;107674;-79
2023/07/03 06:55:43;;;;;;;6.80;4.50;;;;;;;21.70;45.65;99662.98;129566;1270;106811;-79
2023/07/03 06:58:49;;;;;;;7.60;4.30;;;;;;;21.72;45.95;99662.68;129598;1270;107587;-79
2023/07/03 07:01:55;;;;;;;6.40;4.20;;;;;;;21.74;47.18;99664.31;129622;1268;107237;-79
2023/07/03 07:05:00;;;;;;;8.10;4.10;;;;;;;21.87;46.58;99666.34;129977;1273;107557;-81
2023/07/03 07:08:06;;;;;;;7.80;4.30;;;;;;;21.96;45.65;99665.09;130091;1271;109342;-80
2023/07/03 07:11:13;;;;;;;7.00;4.00;;;;;;;21.96;44.86;99670.38;129761;1281;107468;-81
2023/07/03 07:14:19;;;;;;;9.40;4.10;;;;;;;21.91;46.99;99670.34;129801;1273;107317;-78
2023/07/03 07:17:25;;;;;;;7.30;4.20;;;;;;;21.97;46.31;99666.97;129469;1272;107697;-78
2023/07/03 07:20:30;;;;;;;7.70;4.20;;;;;;;21.99;45.82;99668.36;129512;1267;107581;-80
2023/07/03 07:23:36;;;;;;;7.20;4.40;;;;;;;21.90;45.16;99668.36;129462;1267;107582;-80
2023/07/03 07:26:42;;;;;;;7.30;4.10;;;;;;;21.80;44.49;99669.43;129508;1268;107390;-78
2023/07/03 07:29:47;;;;;;;7.90;4.70;;;;;;;21.88;43.37;99667.63;129518;1273;108770;-78
2023/07/03 07:32:53;;;;;;;5.80;4.10;;;;;;;22.06;45.00;99662.04;129562;1273;107654;-79
2023/07/03 07:35:58;;;;;;;9.30;4.40;;;;;;;22.29;46.10;99667.58;129618;1267;107527;-78
2023/07/03 07:39:04;;;;;;;6.20;4.10;;;;;;;22.47;44.99;99662.89;129615;1270;106894;-79
2023/07/03 07:42:11;;;;;;;7.20;4.20;;;;;;;22.65;46.08;99662.91;129587;1270;106117;-79
2023/07/03 07:45:16;;;;;;;6.20;4.00;;;;;;;22.92;46.09;99653.95;129670;1269;107491;-78
2023/07/03 07:48:22;;;;;;;5.30;4.10;;;;;;;23.28;46.38;99653.05;129648;1267;107554;-78
2023/07/03 07:51:28;;;;;;;5.50;3.80;;;;;;;23.62;45.99;99648.58;129629;1272;107455;-78
2023/07/03 07:54:34;;;;;;;7.20;4.50;;;;;;;23.92;45.70;99646.00;129599;1273;107839;-78
2023/07/03 07:57:40;;;;;;;6.80;4.30;;;;;;;24.17;45.43;99648.67;129319;1267;106270;-78
2023/07/03 08:00:50;;;;;;;7.20;4.00;;;;;;;24.35;45.36;99646.55;129423;1267;108182;-79
2023/07/03 08:03:56;;;;;;;8.30;4.60;;;;;;;24.61;44.87;99650.50;129398;1269;107577;-78
2023/07/03 08:07:03;;;;;;;7.60;4.10;;;;;;;24.78;44.67;99654.67;129430;1270;107626;-78
2023/07/03 08:10:09;;;;;;;6.80;4.20;;;;;;;24.94;44.49;99659.15;129417;1268;107556;-78
2023/07/03 08:13:15;;;;;;;6.10;4.30;;;;;;;25.05;44.58;99654.85;129477;1267;107416;-78
2023/07/03 08:16:20;;;;;;;6.80;4.30;;;;;;;25.13;44.38;99652.50;129562;1267;107576;-79
2023/07/03 08:19:26;;;;;;;6.80;3.90;;;;;;;25.18;44.42;99649.26;129420;1267;107604;-78
2023/07/03 08:22:31;;;;;;;6.60;4.50;;;;;;;25.17;44.18;99653.73;129333;1273;107606;-78
2023/07/03 08:25:37;;;;;;;8.20;4.60;;;;;;;25.18;44.32;99658.16;129299;1272;107953;-78
2023/07/03 08:28:43;;;;;;;6.40;4.20;;;;;;;25.32;44.33;99655.48;129410;1267;108233;-78
2023/07/03 08:31:48;;;;;;;7.60;4.60;;;;;;;25.44;43.70;99652.90;129393;1273;107572;-78
2023/07/03 08:34:57;;;;;;;6.80;4.50;;;;;;;25.46;43.49;99650.67;129354;1272;107620;-78
2023/07/03 08:38:03;;;;;;;6.50;4.50;;;;;;;25.46;43.50;99648.55;129442;1270;107552;-78
2023/07/03 08:41:13;;;;;;;6.80;4.80;;;;;;;25.47;42.88;99646.70;129425;1267;107615;-79
2023/07/03 08:44:19;;;;;;;6.90;4.90;;;;;;;25.46;43.12;99641.92;129482;1273;107576;-78
2023/07/03 08:47:28;;;;;;;7.30;4.60;;;;;;;25.54;42.74;99638.09;129474;1273;106596;-79
2023/07/03 08:50:34;;;;;;;8.90;5.20;;;;;;;25.59;42.65;99636.15;129443;1273;106687;-79
2023/07/03 08:53:44;;;;;;;7.70;5.00;;;;;;;25.62;42.61;99635.00;129534;1273;108608;-78
2023/07/03 08:56:50;;;;;;;7.00;4.50;;;;;;;25.56;42.25;99635.52;129457;1267;105900;-78
2023/07/03 08:59:56;;;;;;;7.90;5.10;;;;;;;25.52;42.19;99633.93;129495;1268;108120;-79
2023/07/03 09:03:10;;;;;;;8.50;5.40;;;;;;;25.48;41.92;99628.77;129349;1273;107544;-79
2023/07/03 09:06:24;;;;;;;6.50;5.00;;;;;;;25.45;41.85;99629.91;129438;1266;106177;-78
2023/07/03 09:09:55;;;;;;;8.90;5.30;;;;;;;25.37;41.28;99629.88;129504;1273;107530;-80
2023/07/03 09:13:10;;;;;;;9.40;4.90;;;;;;;25.21;41.92;99630.65;129582;1267;107439;-81
2023/07/03 09:16:21;;;;;;;8.80;4.90;;;;;;;25.24;42.05;99630.95;129738;1270;109396;-80
2023/07/03 09:19:29;;;;;;;10.90;5.30;;;;;;;25.34;41.82;99630.95;129562;1272;107598;-80
2023/07/03 09:22:42;;;;;;;9.10;5.00;;;;;;;25.30;41.92;99627.61;129494;1273;107560;-80
2023/07/03 09:25:52;;;;;;;6.60;5.30;;;;;;;25.28;41.55;99622.80;129397;1273;108020;-80
2023/07/03 09:29:03;;;;;;;7.60;5.10;;;;;;;25.19;41.12;99617.80;129426;1271;107523;-80
2023/07/03 09:32:11;;;;;;;7.30;5.50;;;;;;;25.16;41.64;99618.33;129410;1272;107634;-80
2023/07/03 09:35:19;;;;;;;8.70;5.40;;;;;;;25.10;41.32;99618.91;129377;1269;107558;-80
2023/07/03 09:38:27;;;;;;;8.00;5.20;;;;;;;24.99;41.10;99618.02;129596;1266;107550;-80
2023/07/03 09:41:36;;;;;;;16.50;6.10;;;;;;;24.89;40.81;99619.44;129600;1267;107620;-80
2023/07/03 09:44:44;;;;;;;9.80;4.90;;;;;;;24.84;41.11;99609.64;129639;1268;106110;-80
2023/07/03 09:47:53;;;;;;;7.00;4.70;;;;;;;24.86;40.52;99611.39;129508;1267;107503;-81
2023/07/03 09:50:59;;;;;;;10.60;5.40;;;;;;;24.84;40.45;99611.38;129634;1270;107151;-83
2023/07/03 09:54:18;;;;;;;9.90;5.60;;;;;;;24.82;40.35;99608.48;129556;1267;107571;-84
2023/07/03 09:57:28;;;;;;;8.10;5.40;;;;;;;24.79;40.66;99609.48;129626;1273;107551;-80
2023/07/03 10:00:42;;;;;;;8.60;5.20;;;;;;;24.73;40.10;99601.83;129744;1267;107410;-82
2023/07/03 10:03:48;;;;;;;11.90;5.30;;;;;;;24.65;40.23;99609.88;129585;1273;107585;-81
2023/07/03 10:07:05;;;;;;;12.60;5.30;;;;;;;24.64;40.63;99604.26;129398;1268;106189;-81
2023/07/03 10:10:13;;;;;;;7.10;5.20;;;;;;;24.65;40.34;99607.11;129526;1268;107261;-81
2023/07/03 10:13:26;;;;;;;7.30;4.80;;;;;;;24.67;39.84;99599.59;129560;1273;107514;-81
2023/07/03 10:16:34;;;;;;;10.60;5.10;;;;;;;24.72;40.27;99600.06;129458;1268;107051;-82
2023/07/03 10:19:39;;;;;;;10.20;4.90;;;;;;;24.77;39.55;99599.27;129348;1268;107544;-81
2023/07/03 10:22:46;;;;;;;6.40;4.50;;;;;;;24.79;39.20;99600.42;129368;1268;107128;-81
2023/07/03 10:25:56;;;;;;;7.00;4.50;;;;;;;24.83;39.36;99594.73;129355;1273;106811;-81
2023/07/03 10:29:11;;;;;;;6.80;4.80;;;;;;;24.90;39.52;99594.39;129442;1268;107596;-81
2023/07/03 10:32:19;;;;;;;7.70;4.90;;;;;;;24.98;39.04;99585.55;129523;1267;107612;-81
2023/07/03 10:35:28;;;;;;;8.80;5.20;;;;;;;25.04;39.18;99587.27;129513;1268;107429;-82
2023/07/03 10:38:41;;;;;;;7.00;4.90;;;;;;;25.13;39.22;99586.81;129618;1267;107323;-82
2023/07/03 10:41:50;;;;;;;8.00;5.20;;;;;;;25.22;38.31;99587.46;129557;1268;107597;-81
2023/07/03 10:45:02;;;;;;;7.20;4.80;;;;;;;25.25;37.88;99581.05;129641;1270;108747;-81
2023/07/03 10:48:13;;;;;;;8.60;5.10;;;;;;;25.22;37.61;99578.23;129610;1271;107577;-81
2023/07/03 10:51:19;;;;;;;;;;;;;;;25.32;38.55;99575.19;129568;1270;107443;-82
2023/07/03 10:54:30;;;;;;;7.30;5.30;;;;;;;25.54;38.64;99573.73;129525;1269;107562;-81
2023/07/03 10:57:45;;;;;;;8.60;5.30;;;;;;;25.63;38.23;99577.95;129557;1270;107564;-81
2023/07/03 11:01:00;;;;;;;7.60;4.70;;;;;;;25.71;37.99;99570.55;129658;1270;105738;-81
2023/07/03 11:04:18;;;;;;;7.50;5.60;;;;;;;25.74;37.93;99565.75;129615;1270;107587;-83
2023/07/03 11:07:32;;;;;;;8.70;5.50;;;;;;;25.73;37.86;99564.20;129614;1271;107834;-82
2023/07/03 11:10:45;;;;;;;7.20;5.20;;;;;;;25.75;37.94;99560.45;129615;1270;107478;-81
2023/07/03 11:14:00;;;;;;;10.20;5.80;;;;;;;26.03;38.17;99558.92;129604;1268;107393;-81
2023/07/03 11:17:13;;;;;;;7.80;5.50;;;;;;;26.18;37.86;99565.01;129670;1269;107413;-81
2023/07/03 11:20:26;;;;;;;8.90;6.00;;;;;;;26.22;37.50;99563.36;129549;1271;107646;-81
2023/07/03 11:23:39;;;;;;;7.00;5.10;;;;;;;26.28;37.64;99563.20;129526;1270;107273;-81
2023/07/03 11:26:52;;;;;;;8.60;6.10;;;;;;;26.30;37.93;99567.09;129540;1270;107597;-81
2023/07/03 11:29:58;;;;;;;7.30;5.50;;;;;;;26.24;38.08;99570.03;129602;1267;105954;-81
2023/07/03 11:33:05;;;;;;;7.60;5.30;;;;;;;26.16;37.80;99571.02;129606;1270;107606;-81
2023/07/03 11:36:42;;;;;;;8.10;5.60;;;;;;;26.15;37.79;99563.85;129530;1270;107677;-82
2023/07/03 11:39:52;;;;;;;8.60;5.00;;;;;;;26.26;37.86;99556.85;129622;1270;107408;-80
2023/07/03 11:43:22;;;;;;;9.60;5.70;;;;;;;26.34;38.20;99561.39;129505;1270;107492;-80
2023/07/03 11:46:28;;;;;;;8.40;5.90;;;;;;;26.32;37.19;99560.02;129623;1271;107415;-80
2023/07/03 11:49:36;;;;;;;7.10;5.20;;;;;;;26.31;37.43;99552.24;129597;1270;108749;-80
2023/07/03 11:52:48;;;;;;;7.20;5.40;;;;;;;26.29;37.93;99549.91;129548;1268;107571;-79
2023/07/03 11:55:53;;;;;;;8.30;5.50;;;;;;;26.27;37.50;99541.98;129544;1270;107513;-80
2023/07/03 11:59:05;;;;;;;8.00;5.20;;;;;;;26.34;37.08;99550.01;129557;1270;107530;-80
2023/07/03 12:02:48;;;;;;;7.90;5.40;;;;;;;26.48;36.72;99548.63;129565;1271;107940;-81
2023/07/03 12:05:58;;;;;;;7.50;5.50;;;;;;;26.68;36.45;99542.32;129563;1270;107574;-80
2023/07/03 12:09:23;;;;;;;7.00;5.60;;;;;;;26.76;36.74;99539.95;129477;1270;105740;-80
2023/07/03 12:12:30;;;;;;;7.80;5.60;;;;;;;27.03;36.46;99542.60;129558;1270;107563;-80
2023/07/03 12:15:36;;;;;;;6.30;5.40;;;;;;;27.11;36.24;99537.65;129635;1268;107344;-80
2023/07/03 12:18:41;;;;;;;7.10;5.30;;;;;;;27.18;36.69;99531.85;129596;1268;106395;-82
2023/07/03 12:21:48;;;;;;;10.30;5.70;;;;;;;27.30;36.30;99529.27;129531;1270;107590;-80
2023/07/03 12:25:03;;;;;;;9.00;5.70;;;;;;;27.31;36.51;99527.73;129545;1270;107529;-80
2023/07/03 12:28:13;;;;;;;7.00;5.70;;;;;;;27.28;35.97;99529.83;129558;1270;107500;-80
2023/07/03 12:31:21;;;;;;;8.20;5.50;;;;;;;27.36;35.78;99515.41;129585;1270;107493;-80
2023/07/03 12:34:27;;;;;;;7.50;5.60;;;;;;;27.55;35.97;99523.53;129612;1270;107574;-80
2023/07/03 12:37:33;;;;;;;9.80;6.00;;;;;;;27.72;35.70;99532.13;129624;1270;107542;-80
2023/07/03 12:40:46;;;;;;;8.90;5.90;;;;;;;27.68;34.90;99523.34;129566;1270;109034;-80
2023/07/03 12:43:51;;;;;;;7.90;5.30;;;;;;;27.63;35.81;99518.99;129653;1270;108745;-80
2023/07/03 12:47:06;;;;;;;8.70;5.40;;;;;;;27.71;35.47;99519.59;129566;1270;107287;-80
2023/07/03 12:50:18;;;;;;;7.90;5.80;;;;;;;27.80;35.46;99522.16;129670;1270;107428;-80
2023/07/03 12:53:28;;;;;;;7.10;5.30;;;;;;;27.59;35.04;99519.83;129341;1268;107588;-80
2023/07/03 12:56:35;;;;;;;9.50;5.80;;;;;;;27.32;35.31;99510.13;129450;1273;107506;-80
2023/07/03 12:59:50;;;;;;;7.10;5.50;;;;;;;27.25;35.08;99504.83;129589;1273;107533;-80
2023/07/03 13:03:00;;;;;;;7.10;5.80;;;;;;;27.30;35.42;99506.52;129505;1274;106648;-79
2023/07/03 13:06:15;;;;;;;9.10;5.70;;;;;;;27.26;34.48;99504.08;129264;1272;107461;-75
2023/07/03 13:09:21;;;;;;;7.70;5.50;;;;;;;27.22;35.23;99503.80;129521;1268;108210;-75
2023/07/03 13:12:28;;;;;;;7.40;5.70;;;;;;;27.18;34.99;99505.89;129423;1267;108000;-76
2023/07/03 13:15:36;;;;;;;8.00;5.60;;;;;;;27.10;35.23;99502.92;129489;1268;107592;-75
2023/07/03 13:18:57;;;;;;;9.40;5.90;;;;;;;27.15;35.40;99498.29;129429;1273;106431;-75
2023/07/03 13:22:06;;;;;;;10.70;5.80;;;;;;;27.17;35.41;99495.71;129424;1268;107579;-75
2023/07/03 13:25:21;;;;;;;8.10;5.40;;;;;;;27.11;35.24;99496.80;129397;1273;107071;-75
2023/07/03 13:28:30;;;;;;;8.20;5.50;;;;;;;27.04;35.13;99500.88;129299;1273;107465;-75
2023/07/03 13:31:36;;;;;;;7.00;5.40;;;;;;;27.02;34.75;99500.82;129212;1273;107549;-75
2023/07/03 13:34:57;;;;;;;6.60;5.20;;;;;;;27.06;34.94;99500.70;129315;1273;107046;-75
2023/07/03 13:38:22;;;;;;;7.10;5.60;;;;;;;27.04;34.77;99498.41;129473;1268;107949;-75
2023/07/03 13:41:27;;;;;;;7.40;6.00;;;;;;;26.97;34.60;99504.84;129255;1268;106050;-75
2023/07/03 13:44:33;;;;;;;7.00;5.80;;;;;;;26.87;34.41;99503.63;129199;1273;107546;-76
2023/07/03 13:47:38;;;;;;;7.70;5.60;;;;;;;26.79;34.57;99501.62;129449;1272;106188;-75
2023/07/03 13:50:44;;;;;;;7.40;5.50;;;;;;;26.80;34.94;99502.22;129092;1267;107588;-75
2023/07/03 13:53:50;;;;;;;7.30;5.70;;;;;;;26.92;34.62;99496.77;129397;1273;107436;-76
2023/07/03 13:56:56;;;;;;;7.10;5.60;;;;;;;26.99;34.61;99494.11;129275;1272;108039;-75
2023/07/03 14:00:02;;;;;;;9.60;6.00;;;;;;;26.96;34.46;99489.96;129453;1271;107624;-76
2023/07/03 14:03:16;;;;;;;8.30;5.70;;;;;;;26.85;34.48;99489.61;129458;1268;107626;-76
2023/07/03 14:06:21;;;;;;;6.50;5.60;;;;;;;26.74;34.64;99487.36;129310;1270;107528;-76
2023/07/03 14:09:27;;;;;;;8.10;5.50;;;;;;;26.68;34.98;99482.73;129436;1270;107508;-76
2023/07/03 14:12:32;;;;;;;7.00;5.50;;;;;;;26.69;35.16;99484.27;129493;1271;107412;-76
2023/07/03 14:15:39;;;;;;;7.60;5.80;;;;;;;26.79;35.10;99481.05;129567;1271;107521;-76
2023/07/03 14:18:44;;;;;;;11.80;6.00;;;;;;;26.77;34.69;99485.88;129448;1271;106920;-76
2023/07/03 14:21:50;;;;;;;7.70;6.00;;;;;;;26.68;35.03;99482.23;129574;1271;107596;-76
2023/07/03 14:24:55;;;;;;;10.10;5.70;;;;;;;26.69;34.99;99488.86;129303;1270;107282;-77